createdAt,value
2022-08-05T00:01:21.030Z,3.60
2022-08-05T00:04:28.488Z,3.55
2022-08-05T00:08:00.120Z,3.70
2022-08-05T00:11:01.962Z,3.85
2022-08-05T00:14:11.954Z,4.25
2022-08-05T00:17:19.673Z,3.55
2022-08-05T00:20:29.025Z,4.60
2022-08-05T00:23:45.700Z,5.20
2022-08-05T00:26:53.635Z,5.40
2022-08-05T00:30:00.402Z,5.82
2022-08-05T00:33:15.517Z,6.72
2022-08-05T00:37:12.653Z,6.60
2022-08-05T00:40:01.151Z,6.40
2022-08-05T00:43:08.171Z,5.75
2022-08-05T00:46:16.169Z,6.70
2022-08-05T00:49:21.672Z,5.88
2022-08-05T00:52:28.702Z,5.82
2022-08-05T00:55:42.865Z,5.07
2022-08-05T00:58:49.834Z,4.60
2022-08-05T01:01:55.455Z,4.75
2022-08-05T01:05:00.682Z,4.88
2022-08-05T01:08:39.898Z,4.20
2022-08-05T01:11:39.968Z,4.00
2022-08-05T01:15:06.546Z,3.65
2022-08-05T01:18:41.355Z,4.03
2022-08-05T01:22:28.166Z,3.67
2022-08-05T01:26:02.775Z,3.35
2022-08-05T01:29:23.111Z,2.90
2022-08-05T01:35:50.756Z,2.40
2022-08-05T01:39:01.181Z,3.08
2022-08-05T01:42:12.053Z,3.10
2022-08-05T01:45:21.485Z,2.78
2022-08-05T01:48:29.361Z,2.50
2022-08-05T01:51:36.611Z,3.00
2022-08-05T01:54:49.199Z,2.40
2022-08-05T01:58:29.499Z,2.78
2022-08-05T02:01:28.283Z,2.75
2022-08-05T02:04:43.278Z,2.83
2022-08-05T02:07:59.808Z,3.00
2022-08-05T02:11:11.649Z,2.58
2022-08-05T02:14:29.315Z,2.80
2022-08-05T02:18:31.484Z,2.57
2022-08-05T02:21:42.891Z,2.63
2022-08-05T02:24:56.581Z,2.70
2022-08-05T02:28:08.684Z,2.47
2022-08-05T02:31:28.449Z,2.30
2022-08-05T02:34:42.173Z,2.60
2022-08-05T02:37:53.991Z,2.22
2022-08-05T02:41:00.766Z,2.63
2022-08-05T02:44:24.075Z,2.05
2022-08-05T02:47:58.595Z,2.33
2022-08-05T02:51:01.723Z,2.20
2022-08-05T02:54:07.953Z,2.20
2022-08-05T02:58:10.788Z,2.53
2022-08-05T03:00:46.098Z,2.40
2022-08-05T03:04:02.800Z,2.55
2022-08-05T03:07:40.296Z,2.88
2022-08-05T03:10:37.244Z,2.75
2022-08-05T03:13:51.987Z,2.75
2022-08-05T03:17:09.168Z,2.78
2022-08-05T03:20:15.341Z,2.65
2022-08-05T03:23:24.174Z,2.58
2022-08-05T03:26:32.414Z,2.72
2022-08-05T03:29:45.424Z,2.67
2022-08-05T03:33:07.258Z,3.13
2022-08-05T03:36:13.222Z,3.05
2022-08-05T03:39:20.136Z,4.00
2022-08-05T03:42:33.116Z,4.30
2022-08-05T03:45:59.019Z,3.72
2022-08-05T03:49:05.145Z,4.28
2022-08-05T03:52:36.559Z,3.80
2022-08-05T03:56:10.566Z,4.18
2022-08-05T03:59:29.267Z,3.95
2022-08-05T04:02:58.597Z,3.65
2022-08-05T04:06:06.737Z,3.70
2022-08-05T04:09:25.863Z,3.63
2022-08-05T04:15:39.732Z,3.78
2022-08-05T04:19:10.629Z,4.15
2022-08-05T04:22:20.505Z,3.25
2022-08-05T04:25:57.956Z,3.90
2022-08-05T04:28:52.397Z,3.88
2022-08-05T04:31:57.798Z,4.47
2022-08-05T04:35:03.174Z,3.50
2022-08-05T04:38:11.064Z,3.35
2022-08-05T04:41:21.726Z,3.33
2022-08-05T04:44:43.238Z,3.50
2022-08-05T04:47:50.231Z,3.45
2022-08-05T04:51:01.630Z,3.05
2022-08-05T04:54:09.690Z,4.60
2022-08-05T04:57:15.870Z,4.00
2022-08-05T05:00:23.589Z,3.95
2022-08-05T05:03:32.503Z,3.58
2022-08-05T05:06:52.033Z,3.47
2022-08-05T05:10:06.329Z,4.22
2022-08-05T05:13:14.962Z,3.40
2022-08-05T05:16:20.683Z,3.90
2022-08-05T05:19:36.992Z,4.43
2022-08-05T05:22:52.575Z,3.90
2022-08-05T05:25:57.878Z,4.18
2022-08-05T05:29:10.140Z,4.38
2022-08-05T05:32:20.538Z,3.72
2022-08-05T05:35:26.614Z,3.70
2022-08-05T05:38:35.362Z,3.55
2022-08-05T05:41:41.922Z,4.28
2022-08-05T05:44:47.998Z,3.72
2022-08-05T05:48:06.247Z,3.50
2022-08-05T05:51:19.842Z,3.65
2022-08-05T05:54:49.789Z,4.88
2022-08-05T05:57:52.829Z,4.40
2022-08-05T06:01:02.059Z,3.90
2022-08-05T06:04:13.177Z,3.72
2022-08-05T06:07:22.478Z,3.75
2022-08-05T06:10:29.532Z,4.25
2022-08-05T06:13:50.448Z,4.20
2022-08-05T06:17:02.086Z,4.15
2022-08-05T06:20:28.696Z,3.38
2022-08-05T06:23:44.234Z,3.65
2022-08-05T06:26:52.397Z,3.40
2022-08-05T06:30:04.602Z,3.42
2022-08-05T06:33:33.261Z,3.67
2022-08-05T06:36:57.429Z,3.20
2022-08-05T06:40:05.987Z,3.17
2022-08-05T06:43:58.163Z,2.80
2022-08-05T06:46:38.457Z,2.95
2022-08-05T06:50:01.385Z,2.72
2022-08-05T06:53:22.370Z,2.40
2022-08-05T06:56:34.469Z,3.03
2022-08-05T06:59:42.210Z,3.45
2022-08-05T07:02:54.406Z,3.53
2022-08-05T07:06:05.963Z,3.20
2022-08-05T07:09:19.801Z,3.70
2022-08-05T07:12:49.424Z,3.72
2022-08-05T07:16:13.558Z,3.75
2022-08-05T07:23:06.562Z,3.35
2022-08-05T07:26:13.313Z,3.00
2022-08-05T07:29:20.187Z,2.50
2022-08-05T07:32:46.492Z,2.67
2022-08-05T07:36:05.889Z,2.63
2022-08-05T07:40:26.150Z,2.50
2022-08-05T07:42:50.906Z,1.98
2022-08-05T07:45:58.237Z,2.58
2022-08-05T07:49:07.773Z,2.05
2022-08-05T07:52:13.732Z,2.60
2022-08-05T07:55:44.510Z,2.88
2022-08-05T07:58:57.851Z,2.20
2022-08-05T08:02:05.321Z,2.83
2022-08-05T08:05:11.590Z,3.47
2022-08-05T08:08:19.922Z,2.20
2022-08-05T08:11:27.817Z,2.28
2022-08-05T08:14:51.850Z,2.03
2022-08-05T08:17:57.556Z,1.77
2022-08-05T08:21:09.709Z,2.20
2022-08-05T08:24:21.863Z,2.00
2022-08-05T08:27:51.438Z,2.00
2022-08-05T08:30:57.160Z,2.40
2022-08-05T08:34:02.898Z,2.10
2022-08-05T08:37:08.627Z,1.83
2022-08-05T08:40:14.899Z,1.70
2022-08-05T08:45:20.785Z,1.70
2022-08-05T08:46:49.594Z,1.42
2022-08-05T08:50:13.136Z,1.67
2022-08-05T08:53:27.858Z,1.60
2022-08-05T08:56:35.083Z,1.70
2022-08-05T08:59:47.156Z,1.70
2022-08-05T09:02:55.257Z,1.50
2022-08-05T09:06:08.765Z,1.75
2022-08-05T09:09:16.822Z,1.48
2022-08-05T09:12:27.811Z,2.00
2022-08-05T09:15:36.838Z,1.90
2022-08-05T09:18:44.888Z,2.08
2022-08-05T09:22:23.393Z,1.88
2022-08-05T09:25:23.911Z,1.98
2022-08-05T09:28:48.287Z,1.52
2022-08-05T09:32:40.092Z,1.60
2022-08-05T09:35:32.787Z,1.67
2022-08-05T09:38:38.745Z,1.80
2022-08-05T09:41:59.137Z,1.77
2022-08-05T09:46:04.945Z,1.90
2022-08-05T09:48:35.367Z,2.17
2022-08-05T09:51:42.672Z,1.90
2022-08-05T09:55:58.138Z,1.80
2022-08-05T09:58:38.704Z,1.60
2022-08-05T10:01:48.543Z,1.83
2022-08-05T10:05:10.766Z,2.15
2022-08-05T10:08:37.249Z,2.05
2022-08-05T10:11:45.752Z,1.75
2022-08-05T10:14:54.502Z,1.80
2022-08-05T10:18:17.432Z,1.80
2022-08-05T10:21:22.953Z,1.75
2022-08-05T10:24:29.039Z,1.80
2022-08-05T10:28:09.455Z,1.83
2022-08-05T10:32:51.660Z,2.10
2022-08-05T10:34:29.973Z,1.88
2022-08-05T10:37:44.364Z,1.85
2022-08-05T10:40:52.377Z,1.42
2022-08-05T10:44:09.371Z,1.15
2022-08-05T10:47:26.574Z,1.55
2022-08-05T10:50:37.140Z,1.30
2022-08-05T10:53:55.004Z,1.65
2022-08-05T10:57:00.753Z,1.42
2022-08-05T11:00:22.632Z,1.40
2022-08-05T11:03:29.786Z,1.63
2022-08-05T11:06:36.670Z,1.15
2022-08-05T11:09:46.148Z,1.30
2022-08-05T11:12:55.060Z,1.50
2022-08-05T11:16:33.683Z,1.40
2022-08-05T11:20:10.526Z,1.55
2022-08-05T11:23:33.745Z,1.52
2022-08-05T11:27:51.475Z,1.42
2022-08-05T11:34:08.187Z,1.83
2022-08-05T11:38:36.900Z,2.75
2022-08-05T11:41:57.962Z,1.48
2022-08-05T11:45:14.569Z,1.38
2022-08-05T11:48:33.527Z,1.90
2022-08-05T11:51:44.756Z,1.50
2022-08-05T11:54:55.801Z,1.40
2022-08-05T11:58:10.385Z,1.73
2022-08-05T12:01:21.451Z,1.50
2022-08-05T12:04:29.630Z,1.53
2022-08-05T12:08:08.837Z,1.27
2022-08-05T12:11:06.336Z,1.67
2022-08-05T12:14:12.319Z,1.75
2022-08-05T12:18:03.724Z,1.77
2022-08-05T12:20:43.556Z,1.60
2022-08-05T12:24:11.317Z,1.77
2022-08-05T12:27:25.708Z,1.60
2022-08-05T12:30:39.192Z,1.48
2022-08-05T12:33:51.649Z,1.58
2022-08-05T12:37:11.031Z,1.27
2022-08-05T12:40:29.657Z,1.65
2022-08-05T12:43:36.416Z,1.60
2022-08-05T12:46:53.075Z,1.80
2022-08-05T12:50:04.340Z,1.70
2022-08-05T12:53:17.369Z,1.52
2022-08-05T12:56:34.908Z,1.58
2022-08-05T13:01:58.168Z,1.58
2022-08-05T13:03:14.721Z,1.70
2022-08-05T13:06:20.277Z,1.63
2022-08-05T13:09:28.735Z,1.70
2022-08-05T13:12:50.752Z,2.17
2022-08-05T13:16:03.350Z,1.52
2022-08-05T13:19:16.072Z,1.90
2022-08-05T13:22:28.458Z,1.67
2022-08-05T13:25:52.437Z,1.50
2022-08-05T13:29:01.358Z,1.60
2022-08-05T13:32:06.913Z,2.10
2022-08-05T13:35:14.801Z,1.42
2022-08-05T13:38:31.206Z,1.75
2022-08-05T13:41:41.744Z,2.00
2022-08-05T13:44:47.904Z,1.95
2022-08-05T13:48:09.953Z,1.85
2022-08-05T13:51:36.616Z,1.50
2022-08-05T13:54:53.239Z,2.00
2022-08-05T13:57:59.650Z,2.00
2022-08-05T14:01:06.180Z,2.97
2022-08-05T14:04:31.561Z,1.83
2022-08-05T14:07:59.945Z,1.88
2022-08-05T14:11:20.157Z,1.70
2022-08-05T14:14:30.843Z,1.75
2022-08-05T14:17:39.878Z,1.98
2022-08-05T14:20:48.947Z,1.70
2022-08-05T14:24:00.566Z,2.05
2022-08-05T14:27:18.199Z,1.88
2022-08-05T14:30:26.583Z,1.40
2022-08-05T14:34:00.089Z,1.80
2022-08-05T14:37:00.209Z,2.35
2022-08-05T14:40:07.086Z,1.75
2022-08-05T14:43:12.546Z,1.88
2022-08-05T14:46:19.613Z,1.80
2022-08-05T14:49:25.565Z,1.80
2022-08-05T14:56:57.379Z,2.28
2022-08-05T15:00:04.140Z,1.92
2022-08-05T15:03:10.051Z,1.65
2022-08-05T15:06:16.015Z,1.85
2022-08-05T15:09:51.201Z,1.75
2022-08-05T15:13:00.627Z,1.80
2022-08-05T15:16:07.605Z,1.95
2022-08-05T15:19:23.909Z,1.65
2022-08-05T15:22:29.450Z,2.05
2022-08-05T15:25:51.501Z,1.98
2022-08-05T15:28:58.886Z,3.30
2022-08-05T15:32:08.220Z,2.08
2022-08-05T15:35:14.995Z,1.70
2022-08-05T15:38:34.622Z,2.05
2022-08-05T15:41:55.531Z,1.65
2022-08-05T15:45:02.413Z,1.40
2022-08-05T15:48:08.035Z,2.00
2022-08-05T15:51:13.411Z,2.20
2022-08-05T15:54:19.962Z,1.58
2022-08-05T15:57:41.957Z,2.13
2022-08-05T16:01:11.560Z,1.83
2022-08-05T16:04:18.045Z,1.95
2022-08-05T16:07:24.107Z,1.88
2022-08-05T16:10:29.295Z,1.73
2022-08-05T16:13:35.017Z,1.65
2022-08-05T16:16:40.557Z,1.98
2022-08-05T16:20:05.075Z,1.85
2022-08-05T16:23:11.369Z,1.73
2022-08-05T16:26:18.206Z,1.80
2022-08-05T16:29:24.747Z,2.28
2022-08-05T16:32:30.468Z,2.10
2022-08-05T16:35:42.181Z,2.13
2022-08-05T16:38:55.134Z,1.92
2022-08-05T16:42:14.339Z,2.17
2022-08-05T16:46:04.549Z,2.10
2022-08-05T16:48:48.587Z,2.17
2022-08-05T16:51:54.820Z,2.08
2022-08-05T16:55:02.065Z,2.03
2022-08-05T16:58:10.509Z,2.25
2022-08-05T17:01:19.765Z,2.27
2022-08-05T17:04:28.119Z,2.13
2022-08-05T17:07:43.474Z,2.40
2022-08-05T17:10:59.678Z,1.88
2022-08-05T17:14:06.562Z,2.05
2022-08-05T17:17:15.033Z,1.98
2022-08-05T17:20:21.404Z,2.13
2022-08-05T17:24:04.615Z,2.90
2022-08-05T17:26:52.917Z,2.10
2022-08-05T17:29:59.753Z,2.28
2022-08-05T17:33:08.557Z,2.88
2022-08-05T17:36:33.783Z,2.10
2022-08-05T17:39:40.598Z,2.13
2022-08-05T17:42:53.124Z,2.85
2022-08-05T17:45:58.883Z,1.83
2022-08-05T17:49:05.936Z,1.80
2022-08-05T17:52:12.497Z,2.33
2022-08-05T17:55:18.539Z,2.25
2022-08-05T17:58:32.240Z,2.47
2022-08-05T18:01:48.486Z,2.40
2022-08-05T18:04:56.591Z,2.50
2022-08-05T18:08:02.031Z,2.50
2022-08-05T18:11:08.301Z,3.50
2022-08-05T18:14:20.457Z,3.50
2022-08-05T18:18:01.655Z,2.80
2022-08-05T18:20:52.543Z,2.63
2022-08-05T18:24:04.292Z,2.70
2022-08-05T18:27:16.589Z,3.00
2022-08-05T18:30:26.305Z,2.58
2022-08-05T18:33:37.586Z,2.50
2022-08-05T18:36:54.234Z,3.03
2022-08-05T18:40:57.610Z,2.58
2022-08-05T18:43:25.933Z,2.85
2022-08-05T18:46:37.273Z,2.72
2022-08-05T18:50:04.653Z,3.67
2022-08-05T18:53:19.387Z,2.63
2022-08-05T18:56:28.582Z,3.30
2022-08-05T18:59:44.174Z,2.95
2022-08-05T19:03:03.649Z,3.22
2022-08-05T19:06:18.706Z,3.30
2022-08-05T19:09:27.300Z,4.68
2022-08-05T19:12:34.378Z,4.45
2022-08-05T19:15:59.900Z,3.58
2022-08-05T19:19:05.601Z,2.72
2022-08-05T19:22:12.886Z,2.25
2022-08-05T19:25:30.695Z,2.22
2022-08-05T19:28:46.153Z,2.20
2022-08-05T19:31:53.191Z,1.77
2022-08-05T19:34:59.107Z,1.60
2022-08-05T19:38:11.857Z,1.88
2022-08-05T19:41:21.927Z,1.88
2022-08-05T19:44:45.322Z,2.33
2022-08-05T19:47:55.698Z,2.15
2022-08-05T19:51:01.954Z,2.03
2022-08-05T19:54:26.955Z,2.65
2022-08-05T19:57:49.303Z,2.35
2022-08-05T20:01:02.492Z,2.50
2022-08-05T20:04:11.522Z,2.25
2022-08-05T20:07:48.358Z,2.10
2022-08-05T20:10:43.294Z,1.55
2022-08-05T20:13:58.703Z,1.58
2022-08-05T20:17:16.301Z,1.70
2022-08-05T20:20:23.202Z,1.70
2022-08-05T20:23:39.843Z,1.92
2022-08-05T20:26:55.843Z,1.40
2022-08-05T20:30:02.716Z,1.85
2022-08-05T20:33:09.122Z,1.67
2022-08-05T20:36:16.189Z,1.60
2022-08-05T20:39:22.828Z,1.85
2022-08-05T20:42:28.413Z,1.67
2022-08-05T20:45:56.490Z,1.73
2022-08-05T20:48:59.862Z,2.45
2022-08-05T20:52:10.721Z,1.70
2022-08-05T20:55:54.899Z,1.65
2022-08-05T20:58:43.979Z,1.77
2022-08-05T21:01:52.116Z,1.70
2022-08-05T21:04:57.747Z,1.45
2022-08-05T21:08:07.137Z,2.13
2022-08-05T21:12:06.559Z,2.03
2022-08-05T21:14:40.018Z,2.17
2022-08-05T21:17:46.354Z,2.10
2022-08-05T21:20:55.820Z,1.80
2022-08-05T21:24:01.453Z,2.20
2022-08-05T21:27:10.191Z,2.60
2022-08-05T21:30:17.398Z,2.13
2022-08-05T21:33:23.575Z,2.92
2022-08-05T21:36:30.159Z,2.78
2022-08-05T21:39:40.250Z,2.05
2022-08-05T21:42:47.512Z,2.53
2022-08-05T21:45:57.811Z,2.03
2022-08-05T21:49:10.889Z,2.80
2022-08-05T21:52:35.062Z,2.75
2022-08-05T21:56:01.400Z,2.63
2022-08-05T21:59:07.945Z,2.55
2022-08-05T22:02:28.825Z,2.10
2022-08-05T22:05:48.917Z,2.28
2022-08-05T22:08:55.623Z,2.10
2022-08-05T22:12:10.679Z,3.08
2022-08-05T22:16:01.991Z,2.13
2022-08-05T22:18:43.607Z,2.60
2022-08-05T22:21:55.412Z,2.00
2022-08-05T22:25:27.262Z,2.00
2022-08-05T22:28:33.633Z,1.90
2022-08-05T22:31:44.589Z,2.10
2022-08-05T22:34:50.419Z,2.27
2022-08-05T22:37:59.179Z,3.47
2022-08-05T22:41:09.410Z,2.20
2022-08-05T22:44:16.502Z,2.13
2022-08-05T22:47:29.256Z,2.50
2022-08-05T22:50:36.448Z,1.55
2022-08-05T22:53:55.053Z,2.30
2022-08-05T22:57:00.958Z,2.20
2022-08-05T23:00:10.271Z,2.08
2022-08-05T23:03:23.402Z,2.42
2022-08-05T23:06:49.266Z,2.65
2022-08-05T23:10:01.096Z,2.65
2022-08-05T23:13:08.230Z,2.78
2022-08-05T23:16:14.195Z,2.92
2022-08-05T23:19:38.596Z,2.92
2022-08-05T23:22:56.026Z,4.88
2022-08-05T23:26:01.987Z,3.55
2022-08-05T23:29:09.844Z,2.42
2022-08-05T23:32:23.084Z,2.63
2022-08-05T23:35:34.399Z,2.80
2022-08-05T23:38:40.260Z,3.05
2022-08-05T23:41:48.372Z,3.00
2022-08-05T23:44:54.680Z,3.00
2022-08-05T23:48:03.221Z,3.10
2022-08-05T23:51:10.456Z,3.20
2022-08-05T23:54:25.993Z,3.33
2022-08-05T23:57:32.383Z,4.85
